Time;durP1;ratioP1;P1;durP2;ratioP2;P2;SDS_P1;SDS_P2;PMS_P1;PMS_P2;Temp;Humidity;BMP_temperature;BMP_pressure;BME280_temperature;BME280_humidity;BME280_pressure;Samples;Min_cycle;Max_cycle;Signal;HPM_P1;HPM_P2
2021/08/04 00:03:01;;;;;;;4.32;2.60;;;16.40;99.90;;;;;;6201009;28;20046;-75
2021/08/04 00:06:02;;;;;;;2.65;2.45;;;16.40;99.90;;;;;;6200694;28;20129;-76
2021/08/04 00:09:05;;;;;;;3.33;2.50;;;16.30;99.90;;;;;;6200699;28;20129;-77
2021/08/04 00:12:08;;;;;;;2.70;2.28;;;16.30;99.90;;;;;;6200698;28;20050;-76
2021/08/04 00:15:12;;;;;;;3.40;3.10;;;16.20;99.90;;;;;;6200563;28;20050;-76
2021/08/04 00:18:14;;;;;;;7.00;2.83;;;16.20;99.90;;;;;;6200959;28;20152;-75
2021/08/04 00:21:16;;;;;;;5.28;3.00;;;16.10;99.90;;;;;;6199554;28;20068;-77
2021/08/04 00:24:18;;;;;;;3.10;2.78;;;16.00;99.90;;;;;;6200448;28;20121;-76
2021/08/04 00:27:21;;;;;;;3.58;2.95;;;16.10;99.90;;;;;;6199825;28;20125;-76
2021/08/04 00:30:23;;;;;;;5.78;3.00;;;16.00;99.90;;;;;;6200658;28;20523;-77
2021/08/04 00:33:25;;;;;;;3.95;3.22;;;16.00;99.90;;;;;;6200451;28;20089;-76
2021/08/04 00:36:27;;;;;;;5.03;3.15;;;15.90;99.90;;;;;;6199840;28;20104;-77
2021/08/04 00:39:29;;;;;;;6.03;3.58;;;15.90;99.90;;;;;;6200331;28;20043;-76
2021/08/04 00:42:32;;;;;;;6.70;3.17;;;15.90;99.90;;;;;;6200211;28;20130;-77
2021/08/04 00:45:35;;;;;;;5.18;3.35;;;15.90;99.90;;;;;;6206243;28;20049;-76
2021/08/04 00:48:36;;;;;;;4.80;3.67;;;15.90;99.90;;;;;;6223673;28;20046;-77
2021/08/04 00:51:38;;;;;;;3.83;3.25;;;15.90;99.90;;;;;;6224091;28;20507;-77
2021/08/04 00:54:40;;;;;;;5.80;3.47;;;15.80;99.90;;;;;;6223401;28;20406;-77
2021/08/04 00:57:43;;;;;;;6.35;3.47;;;15.80;99.90;;;;;;6224307;28;20046;-76
2021/08/04 01:00:50;;;;;;;5.10;3.85;;;15.80;99.90;;;;;;6223767;28;20176;-76
2021/08/04 01:03:56;;;;;;;4.13;2.97;;;15.80;99.90;;;;;;6223820;28;20124;-77
2021/08/04 01:07:05;;;;;;;4.45;3.50;;;15.80;99.90;;;;;;6223226;28;20490;-77
2021/08/04 01:10:11;;;;;;;5.13;3.25;;;15.80;99.90;;;;;;6224041;28;20050;-77
2021/08/04 01:13:20;;;;;;;6.10;3.60;;;15.70;99.90;;;;;;6223592;28;20057;-76
2021/08/04 01:16:25;;;;;;;5.07;3.40;;;15.70;99.90;;;;;;6223118;28;20045;-77
2021/08/04 01:19:40;;;;;;;8.85;4.13;;;15.70;99.90;;;;;;6223536;28;20126;-77
2021/08/04 01:22:58;;;;;;;4.70;3.70;;;15.70;99.90;;;;;;6223060;28;20488;-76
2021/08/04 01:26:06;;;;;;;5.60;3.42;;;15.70;99.90;;;;;;6223557;28;20097;-76
2021/08/04 01:29:13;;;;;;;4.45;2.92;;;15.70;99.90;;;;;;6223269;28;20176;-77
2021/08/04 01:32:16;;;;;;;4.68;3.03;;;15.70;99.90;;;;;;6222944;28;20077;-76
2021/08/04 01:35:20;;;;;;;3.50;3.17;;;15.70;99.90;;;;;;6222922;28;20462;-75
2021/08/04 01:38:24;;;;;;;4.30;3.75;;;15.70;99.90;;;;;;6223360;28;20400;-77
2021/08/04 01:41:26;;;;;;;3.40;3.10;;;15.80;99.90;;;;;;6225284;28;20042;-77
2021/08/04 01:44:32;;;;;;;8.43;4.15;;;15.70;99.90;;;;;;6224636;28;20046;-78
2021/08/04 01:47:34;;;;;;;4.78;3.83;;;15.70;99.90;;;;;;6224291;28;20042;-78
2021/08/04 01:50:37;;;;;;;5.75;3.40;;;15.80;99.90;;;;;;6224362;28;20113;-76
2021/08/04 01:53:41;;;;;;;4.57;3.33;;;15.70;99.90;;;;;;6224402;28;20050;-76
2021/08/04 01:56:45;;;;;;;4.85;3.25;;;15.70;99.90;;;;;;6224300;28;20045;-78
2021/08/04 01:59:48;;;;;;;5.20;3.67;;;15.70;99.90;;;;;;6224222;28;20502;-77
2021/08/04 02:02:50;;;;;;;5.22;3.50;;;15.70;99.90;;;;;;6223374;28;20534;-77
2021/08/04 02:05:53;;;;;;;5.72;3.10;;;15.70;99.90;;;;;;6224165;28;20133;-78
2021/08/04 02:09:01;;;;;;;7.47;3.78;;;15.70;99.90;;;;;;6224130;28;20045;-78
2021/08/04 02:12:04;;;;;;;;;;;15.70;99.90;;;;;;6224551;28;20123;-75
2021/08/04 02:15:11;;;;;;;5.80;3.50;;;15.70;99.90;;;;;;6223556;28;19929;-77
2021/08/04 02:18:17;;;;;;;3.95;3.20;;;15.70;99.90;;;;;;6224496;28;20124;-77
2021/08/04 02:21:24;;;;;;;7.15;3.83;;;15.70;99.90;;;;;;6224246;28;20069;-77
2021/08/04 02:24:27;;;;;;;18.65;4.93;;;15.70;99.90;;;;;;6223595;28;20054;-77
2021/08/04 02:27:30;;;;;;;4.72;3.42;;;15.70;99.90;;;;;;6224593;28;20146;-78
2021/08/04 02:30:34;;;;;;;6.63;3.42;;;15.60;99.90;;;;;;6224859;28;20493;-77
2021/08/04 02:33:36;;;;;;;4.15;3.75;;;15.60;99.90;;;;;;6225305;28;20050;-78
2021/08/04 02:36:38;;;;;;;5.40;3.45;;;15.70;99.90;;;;;;6224381;28;20184;-78
2021/08/04 02:39:40;;;;;;;8.75;4.07;;;15.60;99.90;;;;;;6224640;28;20099;-77
2021/08/04 02:42:43;;;;;;;7.20;4.05;;;15.60;99.90;;;;;;6225303;28;20089;-76
2021/08/04 02:45:47;;;;;;;6.50;4.60;;;15.60;99.90;;;;;;6229635;28;20050;-78
2021/08/04 02:48:49;;;;;;;6.00;3.60;;;15.60;99.90;;;;;;6296555;23;20029;-72
2021/08/04 02:51:52;;;;;;;5.57;3.60;;;15.60;99.90;;;;;;6261297;28;20030;-72
2021/08/04 02:54:53;;;;;;;5.18;3.83;;;15.60;99.90;;;;;;6248405;28;20483;-73
2021/08/04 02:57:55;;;;;;;8.38;3.80;;;15.60;99.90;;;;;;6230616;28;20139;-76
2021/08/04 03:00:58;;;;;;;6.20;4.03;;;15.60;99.90;;;;;;6230594;28;20141;-75
2021/08/04 03:04:00;;;;;;;5.60;4.25;;;15.60;99.90;;;;;;6230427;28;20458;-75
2021/08/04 03:07:02;;;;;;;5.47;3.47;;;15.60;99.90;;;;;;6229997;28;20046;-75
2021/08/04 03:10:05;;;;;;;5.40;3.58;;;15.60;99.90;;;;;;6230852;28;20060;-74
2021/08/04 03:13:07;;;;;;;5.80;4.18;;;15.60;99.90;;;;;;6229969;28;20049;-75
2021/08/04 03:16:10;;;;;;;4.70;3.45;;;15.60;99.90;;;;;;6229820;28;20115;-75
2021/08/04 03:19:13;;;;;;;5.70;3.58;;;15.60;99.90;;;;;;6229928;28;20041;-75
2021/08/04 03:22:15;;;;;;;5.13;3.50;;;15.50;99.90;;;;;;6229950;28;20495;-75
2021/08/04 03:25:19;;;;;;;4.95;4.13;;;15.50;99.90;;;;;;6229276;28;20410;-74
2021/08/04 03:28:21;;;;;;;7.13;4.75;;;15.50;99.90;;;;;;6229133;28;20507;-75
2021/08/04 03:31:24;;;;;;;8.18;3.40;;;15.50;99.90;;;;;;6229430;28;20164;-75
2021/08/04 03:34:26;;;;;;;9.55;3.95;;;15.50;99.90;;;;;;6230040;28;20053;-75
2021/08/04 03:37:28;;;;;;;5.45;3.45;;;15.50;99.90;;;;;;6229781;28;20133;-75
2021/08/04 03:40:29;;;;;;;10.30;3.90;;;15.50;99.90;;;;;;6229262;28;20060;-75
2021/08/04 03:43:31;;;;;;;5.07;3.60;;;15.50;99.90;;;;;;6229524;28;20171;-76
2021/08/04 03:46:34;;;;;;;12.23;6.72;;;15.50;99.90;;;;;;6228687;28;20050;-75
2021/08/04 03:49:36;;;;;;;4.20;3.80;;;15.40;99.90;;;;;;6229756;28;20180;-76
2021/08/04 03:52:41;;;;;;;6.68;3.97;;;15.50;99.90;;;;;;6229406;28;20175;-75
2021/08/04 03:55:43;;;;;;;6.85;5.35;;;15.40;99.90;;;;;;6228259;28;20045;-75
2021/08/04 03:58:45;;;;;;;4.28;3.30;;;15.50;99.90;;;;;;6224833;28;20139;-75
2021/08/04 04:01:48;;;;;;;5.22;4.20;;;15.50;99.90;;;;;;6227043;28;20081;-75
2021/08/04 04:04:50;;;;;;;6.05;3.38;;;15.50;99.90;;;;;;6226593;28;20065;-74
2021/08/04 04:07:52;;;;;;;4.25;3.50;;;15.60;99.90;;;;;;6224736;28;20049;-75
2021/08/04 04:10:53;;;;;;;3.97;3.53;;;15.50;99.90;;;;;;6224913;28;20115;-74
2021/08/04 04:13:55;;;;;;;6.50;3.55;;;15.50;99.90;;;;;;6225397;28;20125;-75
2021/08/04 04:16:58;;;;;;;4.00;3.63;;;15.50;99.90;;;;;;6224302;28;20046;-75
2021/08/04 04:20:00;;;;;;;6.97;3.83;;;15.50;99.90;;;;;;6224732;28;20515;-74
2021/08/04 04:23:02;;;;;;;6.72;3.80;;;15.50;99.90;;;;;;6224563;28;20518;-75
2021/08/04 04:26:04;;;;;;;7.40;4.13;;;15.60;99.90;;;;;;6224641;28;20046;-75
2021/08/04 04:29:06;;;;;;;6.38;4.10;;;15.60;99.90;;;;;;6224682;28;20115;-74
2021/08/04 04:32:11;;;;;;;4.90;3.55;;;15.60;99.90;;;;;;6224498;28;20052;-75
2021/08/04 04:35:13;;;;;;;3.65;3.35;;;15.60;99.90;;;;;;6224585;28;20180;-75
2021/08/04 04:38:15;;;;;;;4.88;4.05;;;15.60;99.90;;;;;;6224503;28;20058;-75
2021/08/04 04:41:16;;;;;;;5.85;3.60;;;15.70;99.90;;;;;;6224450;28;20042;-75
2021/08/04 04:44:18;;;;;;;4.95;3.60;;;15.70;99.90;;;;;;6224328;28;20081;-75
2021/08/04 04:47:21;;;;;;;5.78;4.13;;;15.70;99.90;;;;;;6223824;28;20091;-76
2021/08/04 04:50:23;;;;;;;5.68;3.72;;;15.70;99.90;;;;;;6224411;28;20530;-75
2021/08/04 04:53:26;;;;;;;6.03;3.65;;;15.70;99.90;;;;;;6224107;28;20050;-75
2021/08/04 04:56:28;;;;;;;9.68;4.15;;;15.80;99.90;;;;;;6223564;28;20507;-75
2021/08/04 04:59:30;;;;;;;8.75;4.25;;;15.80;99.90;;;;;;6223728;28;20127;-74
2021/08/04 05:02:33;;;;;;;6.78;4.15;;;16.00;99.90;;;;;;6223935;28;20054;-74
2021/08/04 05:05:35;;;;;;;6.13;4.10;;;16.00;99.90;;;;;;6223963;28;20050;-75
2021/08/04 05:08:37;;;;;;;8.10;4.13;;;16.10;99.90;;;;;;6223204;28;20104;-75
2021/08/04 05:11:38;;;;;;;4.90;4.32;;;16.10;99.90;;;;;;6223300;28;20123;-75
2021/08/04 05:14:40;;;;;;;4.32;3.92;;;16.20;99.90;;;;;;6223474;28;20103;-74
2021/08/04 05:17:44;;;;;;;6.38;3.70;;;16.20;99.90;;;;;;6223232;28;20152;-75
2021/08/04 05:20:45;;;;;;;4.72;3.78;;;16.30;99.90;;;;;;6223185;28;20046;-75
2021/08/04 05:23:47;;;;;;;6.38;4.50;;;16.30;99.90;;;;;;6223222;28;20180;-76
2021/08/04 05:26:49;;;;;;;6.00;4.03;;;16.30;99.90;;;;;;6222714;28;20097;-75
2021/08/04 05:29:51;;;;;;;6.10;3.67;;;16.30;99.90;;;;;;6223697;28;20092;-75
2021/08/04 05:32:54;;;;;;;4.03;3.63;;;16.30;99.90;;;;;;6222862;28;20073;-76
2021/08/04 05:35:56;;;;;;;5.40;4.03;;;16.30;99.90;;;;;;6222909;28;20125;-75
2021/08/04 05:38:58;;;;;;;5.82;3.67;;;16.40;99.90;;;;;;6222771;28;20073;-75
2021/08/04 05:41:59;;;;;;;6.22;3.72;;;16.50;99.90;;;;;;6223441;28;20046;-75
2021/08/04 05:45:01;;;;;;;4.03;3.28;;;16.50;99.90;;;;;;6222658;28;20559;-75
2021/08/04 05:48:05;;;;;;;6.05;3.58;;;16.60;99.90;;;;;;6221993;28;20567;-75
2021/08/04 05:51:07;;;;;;;5.72;3.47;;;16.70;99.90;;;;;;6222620;28;20042;-76
2021/08/04 05:54:09;;;;;;;7.43;3.35;;;16.80;99.90;;;;;;6223009;28;20074;-75
2021/08/04 05:57:11;;;;;;;6.88;4.15;;;16.90;99.90;;;;;;6222106;28;20072;-75
2021/08/04 06:00:13;;;;;;;14.90;6.82;;;17.00;99.90;;;;;;6222041;28;20467;-75
2021/08/04 06:03:16;;;;;;;3.72;2.60;;;17.10;99.90;;;;;;6219394;28;20053;-76
2021/08/04 06:06:18;;;;;;;4.28;3.00;;;17.10;99.90;;;;;;6213940;28;20133;-75
2021/08/04 06:09:20;;;;;;;5.75;3.88;;;17.20;99.90;;;;;;6222052;28;20049;-76
2021/08/04 06:12:22;;;;;;;4.47;3.72;;;17.30;99.90;;;;;;6221906;28;20160;-74
2021/08/04 06:15:24;;;;;;;4.22;3.53;;;17.40;99.90;;;;;;6221825;28;20046;-75
2021/08/04 06:18:27;;;;;;;5.90;3.22;;;17.40;99.90;;;;;;6222216;28;20155;-76
2021/08/04 06:21:29;;;;;;;3.47;2.67;;;17.50;99.90;;;;;;6221167;28;20108;-75
2021/08/04 06:24:31;;;;;;;3.45;3.15;;;17.50;99.90;;;;;;6221865;28;20073;-75
2021/08/04 06:27:32;;;;;;;4.03;3.22;;;17.50;99.90;;;;;;6221540;28;20512;-74
2021/08/04 06:30:34;;;;;;;4.10;2.33;;;17.60;99.90;;;;;;6221782;28;20057;-74
2021/08/04 06:33:37;;;;;;;4.85;3.05;;;17.60;99.90;;;;;;6222445;28;20124;-75
2021/08/04 06:36:39;;;;;;;5.32;4.05;;;17.70;99.90;;;;;;6221606;28;20048;-74
2021/08/04 06:39:41;;;;;;;4.18;2.97;;;17.70;99.90;;;;;;6221390;28;20069;-74
2021/08/04 06:42:43;;;;;;;3.72;2.97;;;17.70;99.90;;;;;;6221563;28;20155;-75
2021/08/04 06:45:45;;;;;;;3.83;3.00;;;17.70;99.90;;;;;;6221391;28;20132;-75
2021/08/04 06:48:48;;;;;;;4.60;3.58;;;17.80;99.90;;;;;;6221606;28;20045;-74
2021/08/04 06:51:50;;;;;;;3.05;2.72;;;17.90;99.90;;;;;;6221413;28;20499;-75
2021/08/04 06:54:51;;;;;;;6.82;3.22;;;18.00;99.90;;;;;;6221821;28;20042;-75
2021/08/04 06:57:53;;;;;;;3.38;3.05;;;18.10;99.40;;;;;;6221689;28;20046;-75
2021/08/04 07:00:55;;;;;;;6.93;2.53;;;18.20;98.90;;;;;;6221570;28;20089;-75
2021/08/04 07:03:58;;;;;;;3.58;2.50;;;18.20;98.40;;;;;;6221345;28;20096;-74
2021/08/04 07:07:03;;;;;;;4.15;2.40;;;18.30;98.20;;;;;;6221160;28;20431;-75
2021/08/04 07:10:05;;;;;;;3.28;2.83;;;18.40;97.40;;;;;;6221895;28;20049;-74
2021/08/04 07:13:07;;;;;;;6.50;3.00;;;18.40;96.90;;;;;;6221093;28;20111;-75
2021/08/04 07:16:09;;;;;;;2.92;2.60;;;18.50;96.70;;;;;;6221317;28;20128;-75
2021/08/04 07:19:12;;;;;;;6.65;3.22;;;18.60;96.90;;;;;;6221359;28;20507;-75
2021/08/04 07:22:13;;;;;;;2.67;2.33;;;18.60;96.10;;;;;;6221804;28;20081;-74
2021/08/04 07:25:17;;;;;;;2.85;2.58;;;18.70;96.10;;;;;;6221050;28;20531;-75
2021/08/04 07:28:19;;;;;;;3.88;2.97;;;18.80;95.80;;;;;;6220922;28;20200;-75
2021/08/04 07:31:21;;;;;;;2.83;2.45;;;18.90;95.20;;;;;;6222766;28;20092;-75
2021/08/04 07:34:24;;;;;;;3.00;2.42;;;19.10;94.30;;;;;;6226252;28;20058;-75
2021/08/04 07:37:26;;;;;;;2.83;2.40;;;19.20;93.00;;;;;;6225451;28;20049;-74
2021/08/04 07:40:28;;;;;;;5.57;2.35;;;19.30;92.40;;;;;;6225569;28;20103;-74
2021/08/04 07:43:30;;;;;;;6.38;2.83;;;19.40;90.80;;;;;;6225477;28;20115;-74
2021/08/04 07:46:31;;;;;;;4.13;2.92;;;19.50;90.00;;;;;;6225163;28;20100;-74
2021/08/04 07:49:35;;;;;;;3.10;2.55;;;19.60;89.20;;;;;;6225953;28;20053;-74
2021/08/04 07:52:36;;;;;;;2.30;1.98;;;19.70;87.10;;;;;;6225206;28;20068;-75
2021/08/04 07:55:38;;;;;;;3.33;2.33;;;19.90;85.00;;;;;;6225038;28;20050;-75
2021/08/04 07:58:40;;;;;;;6.00;1.92;;;20.10;84.60;;;;;;6225361;28;20482;-75
2021/08/04 08:01:43;;;;;;;3.15;2.40;;;20.30;82.70;;;;;;6227469;28;20085;-75
2021/08/04 08:04:46;;;;;;;3.75;2.67;;;20.50;82.50;;;;;;6225035;28;20053;-75
2021/08/04 08:07:49;;;;;;;5.00;2.28;;;20.80;80.20;;;;;;6225287;28;20423;-75
2021/08/04 08:10:52;;;;;;;1.98;1.77;;;21.00;78.40;;;;;;6225069;28;20054;-75
2021/08/04 08:13:54;;;;;;;3.60;2.00;;;21.40;74.60;;;;;;6225935;28;20054;-74
2021/08/04 08:16:57;;;;;;;3.15;2.40;;;21.70;72.40;;;;;;6224556;28;20053;-75
2021/08/04 08:20:00;;;;;;;1.80;1.70;;;21.90;70.90;;;;;;6225297;28;20042;-75
2021/08/04 08:23:02;;;;;;;2.38;2.05;;;22.10;69.90;;;;;;6225161;28;20093;-75
2021/08/04 08:26:04;;;;;;;3.25;2.05;;;22.20;70.00;;;;;;6225101;28;20137;-75
2021/08/04 08:29:06;;;;;;;3.90;2.38;;;22.30;69.60;;;;;;6209143;28;20507;-75
2021/08/04 08:32:08;;;;;;;3.85;1.60;;;22.40;68.90;;;;;;6224761;28;20052;-73
2021/08/04 08:35:12;;;;;;;2.47;2.28;;;22.40;66.40;;;;;;6224434;28;20066;-74
2021/08/04 08:38:13;;;;;;;3.33;2.20;;;22.40;66.40;;;;;;6225116;28;20128;-75
2021/08/04 08:41:17;;;;;;;1.65;1.55;;;22.50;66.20;;;;;;6224813;28;20122;-75
2021/08/04 08:44:19;;;;;;;5.28;1.95;;;22.60;64.30;;;;;;6223752;28;20132;-74
2021/08/04 08:47:21;;;;;;;3.83;2.00;;;22.60;64.20;;;;;;6224737;28;20041;-75
2021/08/04 08:50:26;;;;;;;3.63;1.67;;;22.60;64.20;;;;;;6224701;28;20188;-74
2021/08/04 08:53:28;;;;;;;1.95;1.75;;;22.70;64.30;;;;;;6224910;28;20054;-75
2021/08/04 08:56:30;;;;;;;3.38;2.05;;;22.70;64.30;;;;;;6223628;28;20046;-74
2021/08/04 08:59:32;;;;;;;2.47;1.83;;;22.80;64.60;;;;;;6223916;28;20124;-75
2021/08/04 09:02:33;;;;;;;5.45;2.08;;;22.90;63.90;;;;;;6217074;28;20054;-75
2021/08/04 09:05:50;;;;;;;2.17;1.88;;;23.10;62.60;;;;;;6222968;28;20133;-75
2021/08/04 09:08:52;;;;;;;4.38;2.38;;;23.10;61.20;;;;;;6222843;28;20096;-76
2021/08/04 09:11:55;;;;;;;2.33;2.13;;;23.10;61.40;;;;;;6222529;28;20054;-75
2021/08/04 09:14:57;;;;;;;2.08;1.90;;;23.20;61.80;;;;;;6222764;28;20099;-76
2021/08/04 09:18:04;;;;;;;1.67;1.30;;;23.40;60.40;;;;;;6222647;28;20046;-75
2021/08/04 09:21:08;;;;;;;2.28;1.92;;;23.60;61.10;;;;;;6222417;28;20085;-75
2021/08/04 09:24:10;;;;;;;3.03;2.10;;;23.70;59.20;;;;;;6222495;28;20133;-75
2021/08/04 09:27:12;;;;;;;2.50;1.73;;;23.80;57.50;;;;;;6222004;28;20123;-75
2021/08/04 09:30:16;;;;;;;1.40;1.30;;;23.70;57.80;;;;;;6223154;28;20053;-76
2021/08/04 09:33:25;;;;;;;2.47;1.65;;;23.80;58.60;;;;;;6222871;28;20132;-75
2021/08/04 09:36:29;;;;;;;5.57;2.38;;;24.10;58.90;;;;;;6222887;28;20133;-75
2021/08/04 09:39:31;;;;;;;2.40;1.52;;;24.30;57.50;;;;;;6222962;28;20103;-75
2021/08/04 09:42:51;;;;;;;2.17;1.90;;;24.50;57.00;;;;;;6222842;28;20096;-75
2021/08/04 09:45:54;;;;;;;2.42;1.75;;;24.60;57.30;;;;;;6223071;28;20399;-75
2021/08/04 09:49:10;;;;;;;3.42;1.50;;;24.70;56.90;;;;;;6222562;28;20385;-75
2021/08/04 09:52:13;;;;;;;3.63;1.30;;;24.90;55.40;;;;;;6222653;28;20180;-75
2021/08/04 09:55:17;;;;;;;1.98;1.75;;;25.00;55.30;;;;;;6221535;28;20117;-75
2021/08/04 09:58:24;;;;;;;1.88;1.75;;;25.10;55.30;;;;;;6222495;28;20045;-76
2021/08/04 10:01:39;;;;;;;3.70;1.60;;;25.10;55.20;;;;;;6222737;28;20467;-75
2021/08/04 10:04:41;;;;;;;2.40;2.17;;;25.30;56.20;;;;;;6222620;28;20052;-75
2021/08/04 10:08:07;;;;;;;5.47;1.50;;;25.60;54.20;;;;;;6221846;28;20395;-75
2021/08/04 10:11:09;;;;;;;4.53;1.73;;;25.60;53.30;;;;;;6222504;28;20069;-75
2021/08/04 10:14:13;;;;;;;2.17;1.80;;;25.60;52.10;;;;;;6222757;28;20050;-75
2021/08/04 10:17:15;;;;;;;3.60;1.30;;;25.50;52.90;;;;;;6221887;28;20045;-75
2021/08/04 10:20:17;;;;;;;2.60;1.48;;;25.40;53.80;;;;;;6222163;28;20131;-75
2021/08/04 10:23:21;;;;;;;2.65;1.30;;;25.40;52.60;;;;;;6222100;28;20042;-75
2021/08/04 10:26:23;;;;;;;1.42;1.25;;;25.30;54.00;;;;;;6222080;28;20601;-75
2021/08/04 10:29:25;;;;;;;2.25;1.50;;;25.50;53.20;;;;;;6221969;28;20124;-75
2021/08/04 10:32:29;;;;;;;4.28;1.92;;;25.70;53.20;;;;;;6221808;28;20133;-75
2021/08/04 10:35:31;;;;;;;1.60;1.50;;;25.90;52.50;;;;;;6222014;28;20046;-75
2021/08/04 10:38:36;;;;;;;1.63;1.52;;;25.80;52.60;;;;;;6221720;28;20141;-75
2021/08/04 10:41:41;;;;;;;3.45;1.77;;;25.90;51.60;;;;;;6222363;28;20049;-75
2021/08/04 10:44:44;;;;;;;2.28;1.88;;;25.70;52.50;;;;;;6222025;28;20050;-75
2021/08/04 10:47:46;;;;;;;2.92;1.60;;;25.60;53.20;;;;;;6221031;28;20049;-75
2021/08/04 10:51:17;;;;;;;2.22;1.35;;;25.60;53.90;;;;;;6221871;28;20131;-75
2021/08/04 10:54:20;;;;;;;1.83;1.63;;;25.80;53.40;;;;;;6221956;28;20050;-75
2021/08/04 10:57:22;;;;;;;2.45;1.63;;;26.00;52.30;;;;;;6221125;28;20129;-75
2021/08/04 11:00:25;;;;;;;1.73;1.33;;;26.30;50.90;;;;;;6221659;28;20042;-75
2021/08/04 11:03:46;;;;;;;3.17;1.40;;;26.40;50.80;;;;;;6221644;28;20038;-75
2021/08/04 11:07:12;;;;;;;3.55;1.55;;;26.40;51.60;;;;;;6223983;28;20048;-76
2021/08/04 11:10:16;;;;;;;2.22;1.05;;;26.40;51.70;;;;;;6226849;28;20402;-75
2021/08/04 11:13:55;;;;;;;1.77;0.90;;;26.60;49.50;;;;;;6226418;28;20107;-76
2021/08/04 11:17:01;;;;;;;3.13;0.85;;;27.00;48.90;;;;;;6226174;28;20507;-75
2021/08/04 11:20:12;;;;;;;1.80;1.10;;;27.20;48.20;;;;;;6226092;28;20523;-76
2021/08/04 11:23:13;;;;;;;2.28;1.00;;;27.00;48.60;;;;;;6226155;28;20042;-75
2021/08/04 11:26:29;;;;;;;3.38;1.45;;;26.80;49.60;;;;;;6226066;28;20088;-75
2021/08/04 11:29:45;;;;;;;1.75;1.60;;;26.80;48.60;;;;;;6226208;28;20104;-76
2021/08/04 11:32:47;;;;;;;2.05;1.20;;;26.90;49.40;;;;;;6225981;28;20104;-76
2021/08/04 11:36:07;;;;;;;1.92;1.50;;;26.90;48.70;;;;;;6225189;28;20046;-77
2021/08/04 11:39:09;;;;;;;1.77;1.25;;;27.00;48.70;;;;;;6225850;28;20081;-76
2021/08/04 11:42:16;;;;;;;1.77;1.55;;;27.20;48.90;;;;;;6226314;28;20049;-75
2021/08/04 11:45:18;;;;;;;1.07;0.97;;;27.30;47.80;;;;;;6225541;28;20482;-75
2021/08/04 11:48:20;;;;;;;1.25;1.05;;;27.30;46.80;;;;;;6225105;28;20081;-75
2021/08/04 11:51:31;;;;;;;3.88;1.58;;;27.30;46.80;;;;;;6225428;28;20050;-76
2021/08/04 11:54:40;;;;;;;2.22;1.10;;;27.30;46.30;;;;;;6225463;28;20413;-76
2021/08/04 11:57:46;;;;;;;1.92;1.10;;;27.40;45.80;;;;;;6223765;28;20049;-75
2021/08/04 12:00:48;;;;;;;2.03;1.42;;;27.60;45.90;;;;;;6224382;28;20591;-76
2021/08/04 12:04:06;;;;;;;1.23;0.90;;;27.60;46.30;;;;;;6214423;28;20045;-76
2021/08/04 12:07:08;;;;;;;;;;;27.70;46.50;;;;;;6224581;28;20046;-76
2021/08/04 12:10:12;;;;;;;1.30;1.05;;;27.60;47.60;;;;;;6224785;28;19932;-75
2021/08/04 12:13:15;;;;;;;1.45;1.00;;;27.50;47.60;;;;;;6224116;28;20512;-76
2021/08/04 12:16:17;;;;;;;1.60;0.80;;;27.50;45.50;;;;;;6223894;28;20085;-75
2021/08/04 12:19:39;;;;;;;2.10;1.00;;;27.40;46.10;;;;;;6222683;28;20064;-75
2021/08/04 12:22:41;;;;;;;1.17;1.08;;;27.40;47.00;;;;;;6223772;28;20562;-75
2021/08/04 12:25:44;;;;;;;2.40;1.00;;;27.60;46.60;;;;;;6223886;28;20049;-75
2021/08/04 12:28:47;;;;;;;2.10;1.17;;;27.60;46.70;;;;;;6223741;28;20052;-75
2021/08/04 12:32:14;;;;;;;1.20;1.00;;;27.60;45.50;;;;;;6223362;28;20668;-75
2021/08/04 12:35:18;;;;;;;1.60;0.90;;;27.70;45.20;;;;;;6223446;28;20046;-76
2021/08/04 12:38:23;;;;;;;1.58;1.30;;;27.80;45.60;;;;;;6224257;28;20081;-77
2021/08/04 12:41:26;;;;;;;2.33;1.40;;;27.90;46.00;;;;;;6223722;28;20081;-77
2021/08/04 12:44:30;;;;;;;1.98;1.33;;;27.80;45.90;;;;;;6223459;28;20049;-76
2021/08/04 12:47:32;;;;;;;1.63;0.95;;;27.80;45.40;;;;;;6222763;28;20104;-76
2021/08/04 12:50:50;;;;;;;4.18;0.90;;;27.70;45.80;;;;;;6222915;28;20149;-75
2021/08/04 12:53:55;;;;;;;;;;;27.60;45.00;;;;;;6224437;28;20718;-75
2021/08/04 12:56:58;;;;;;;1.77;1.42;;;27.50;45.90;;;;;;6222555;28;19952;-75
2021/08/04 13:00:04;;;;;;;1.60;1.33;;;27.30;47.20;;;;;;6223227;28;20124;-76
2021/08/04 13:03:07;;;;;;;2.35;0.98;;;27.30;47.70;;;;;;6221691;28;20053;-76
2021/08/04 13:06:08;;;;;;;2.70;1.30;;;27.20;48.50;;;;;;6222122;28;20085;-76
2021/08/04 13:09:10;;;;;;;1.33;0.82;;;27.20;48.00;;;;;;6222418;28;20129;-76
2021/08/04 13:12:14;;;;;;;2.38;1.65;;;27.30;47.60;;;;;;6222962;28;20140;-76
2021/08/04 13:15:19;;;;;;;3.20;1.08;;;27.40;46.80;;;;;;6222951;28;20042;-76
2021/08/04 13:18:21;;;;;;;3.35;1.17;;;27.40;45.90;;;;;;6223348;28;20411;-76
2021/08/04 13:21:23;;;;;;;3.42;1.80;;;27.40;47.20;;;;;;6222826;28;20056;-76
2021/08/04 13:24:29;;;;;;;1.58;1.48;;;27.50;47.80;;;;;;6222970;28;20569;-76
2021/08/04 13:27:33;;;;;;;2.45;1.27;;;27.50;47.80;;;;;;6222827;28;20049;-76
2021/08/04 13:30:39;;;;;;;3.33;2.05;;;27.40;47.50;;;;;;6222501;28;20054;-76
2021/08/04 13:33:43;;;;;;;1.20;1.05;;;27.40;47.00;;;;;;6223180;28;20068;-76
2021/08/04 13:36:45;;;;;;;1.50;1.40;;;27.30;46.50;;;;;;6222367;28;20056;-76
2021/08/04 13:39:47;;;;;;;2.28;1.42;;;27.10;47.50;;;;;;6222439;28;20132;-76
2021/08/04 13:42:48;;;;;;;1.50;1.13;;;27.00;47.80;;;;;;6222830;28;20115;-76
2021/08/04 13:45:52;;;;;;;2.70;1.25;;;26.90;47.70;;;;;;6222690;28;20049;-76
2021/08/04 13:48:54;;;;;;;3.38;1.58;;;26.80;46.90;;;;;;6221780;28;20120;-76
2021/08/04 13:51:55;;;;;;;1.80;1.50;;;26.50;47.30;;;;;;6222274;28;20049;-75
2021/08/04 13:54:58;;;;;;;1.75;1.42;;;26.30;48.70;;;;;;6222143;28;20072;-75
2021/08/04 13:58:00;;;;;;;1.83;1.17;;;26.20;50.80;;;;;;6222019;28;20155;-76
2021/08/04 14:01:03;;;;;;;1.58;1.25;;;26.20;51.00;;;;;;6221928;28;20411;-76
2021/08/04 14:04:05;;;;;;;1.80;1.35;;;26.00;50.20;;;;;;6220852;28;20149;-76
2021/08/04 14:07:07;;;;;;;2.15;1.05;;;26.00;50.00;;;;;;6220979;28;20073;-75
2021/08/04 14:10:11;;;;;;;1.45;1.17;;;26.10;50.20;;;;;;6222492;28;20140;-75
2021/08/04 14:13:13;;;;;;;2.08;1.40;;;26.10;49.80;;;;;;6221645;28;20042;-76
2021/08/04 14:16:16;;;;;;;4.90;1.55;;;26.10;50.10;;;;;;6221430;28;20057;-75
2021/08/04 14:19:18;;;;;;;3.38;1.38;;;26.00;49.60;;;;;;6221581;28;20602;-75
2021/08/04 14:22:21;;;;;;;8.13;1.80;;;26.00;50.90;;;;;;6222058;28;20156;-75
2021/08/04 14:25:23;;;;;;;3.42;1.40;;;26.00;50.10;;;;;;6221622;28;20595;-76
2021/08/04 14:28:26;;;;;;;1.70;1.60;;;25.90;49.90;;;;;;6221448;28;20091;-76
2021/08/04 14:31:30;;;;;;;2.47;1.58;;;26.00;50.00;;;;;;6221715;28;20088;-76
2021/08/04 14:34:32;;;;;;;2.08;1.27;;;26.00;50.50;;;;;;6221442;28;20049;-75
2021/08/04 14:37:34;;;;;;;5.88;1.52;;;26.00;49.90;;;;;;6221466;28;20415;-75
2021/08/04 14:40:36;;;;;;;2.17;1.38;;;25.90;51.10;;;;;;6220712;28;20068;-75
2021/08/04 14:43:37;;;;;;;2.38;0.80;;;25.90;50.10;;;;;;6221559;28;20172;-75
2021/08/04 14:46:41;;;;;;;1.67;1.40;;;25.70;49.10;;;;;;6220693;28;20081;-75
2021/08/04 14:49:42;;;;;;;2.05;1.13;;;25.60;50.80;;;;;;6226804;28;20144;-76
2021/08/04 14:52:44;;;;;;;1.33;1.23;;;25.60;51.00;;;;;;6221171;28;20139;-74
2021/08/04 14:55:46;;;;;;;1.40;0.85;;;25.50;50.20;;;;;;6221132;28;20112;-74
2021/08/04 14:58:48;;;;;;;1.67;1.02;;;25.40;51.40;;;;;;6220954;28;20065;-75
2021/08/04 15:01:51;;;;;;;5.95;4.22;;;25.20;51.20;;;;;;6221303;28;20137;-75
2021/08/04 15:04:53;;;;;;;1.30;1.08;;;25.10;52.50;;;;;;6220236;28;20049;-75
2021/08/04 15:07:55;;;;;;;3.03;1.58;;;25.10;52.70;;;;;;6219852;28;20041;-75
2021/08/04 15:10:57;;;;;;;4.25;1.33;;;25.10;52.80;;;;;;6221070;28;20514;-75
2021/08/04 15:13:59;;;;;;;1.40;1.15;;;25.10;52.60;;;;;;6221519;28;20669;-75
2021/08/04 15:17:05;;;;;;;1.92;1.52;;;25.10;52.40;;;;;;6220442;28;20192;-76
2021/08/04 15:20:08;;;;;;;5.00;1.60;;;25.20;52.10;;;;;;6220825;28;20144;-75
2021/08/04 15:23:10;;;;;;;2.05;1.50;;;25.20;53.90;;;;;;6221102;28;20033;-75
2021/08/04 15:26:15;;;;;;;1.38;1.15;;;25.10;52.80;;;;;;6220699;28;20081;-74
2021/08/04 15:29:17;;;;;;;1.80;1.50;;;25.00;52.70;;;;;;6220988;28;20069;-74
2021/08/04 15:32:20;;;;;;;2.08;1.42;;;24.90;53.20;;;;;;6220711;28;20540;-75
2021/08/04 15:35:23;;;;;;;4.40;1.15;;;24.90;52.80;;;;;;6221013;28;20050;-75
2021/08/04 15:38:25;;;;;;;2.25;1.92;;;24.90;52.40;;;;;;6221151;28;20163;-75
2021/08/04 15:41:26;;;;;;;1.40;1.30;;;24.70;51.90;;;;;;6220652;28;20752;-75
2021/08/04 15:44:28;;;;;;;1.83;1.52;;;24.60;53.30;;;;;;6220845;28;20121;-75
2021/08/04 15:47:33;;;;;;;2.55;1.42;;;24.60;53.60;;;;;;6220305;28;20588;-75
2021/08/04 15:50:34;;;;;;;2.05;1.52;;;24.50;54.40;;;;;;6220580;28;20062;-75
2021/08/04 15:53:36;;;;;;;1.92;1.33;;;24.30;54.40;;;;;;6224838;28;20085;-75
2021/08/04 15:56:38;;;;;;;2.42;1.08;;;24.30;54.80;;;;;;6224604;28;20580;-75
2021/08/04 15:59:40;;;;;;;1.58;1.40;;;24.10;53.60;;;;;;6224616;28;20053;-74